createdAt,value
2023-04-22T00:02:19.588Z,1.80
2023-04-22T00:04:48.349Z,1.80
2023-04-22T00:07:19.316Z,1.60
2023-04-22T00:09:48.052Z,2.03
2023-04-22T00:12:16.877Z,1.65
2023-04-22T00:14:45.448Z,1.80
2023-04-22T00:17:14.056Z,1.70
2023-04-22T00:19:44.014Z,1.63
2023-04-22T00:22:12.525Z,2.05
2023-04-22T00:24:41.422Z,1.55
2023-04-22T00:27:10.027Z,1.77
2023-04-22T00:29:39.675Z,2.00
2023-04-22T00:32:08.595Z,1.70
2023-04-22T00:34:37.108Z,1.90
2023-04-22T00:37:07.092Z,1.90
2023-04-22T00:39:35.702Z,1.70
2023-04-22T00:42:04.511Z,1.77
2023-04-22T00:44:33.783Z,1.83
2023-04-22T00:47:03.235Z,1.90
2023-04-22T00:49:32.374Z,2.00
2023-04-22T00:52:02.437Z,1.75
2023-04-22T00:54:33.254Z,2.03
2023-04-22T00:57:02.262Z,1.92
2023-04-22T00:59:31.310Z,1.92
2023-04-22T01:02:00.115Z,1.63
2023-04-22T01:04:29.131Z,1.70
2023-04-22T01:07:00.589Z,1.90
2023-04-22T01:09:29.182Z,1.90
2023-04-22T01:11:59.146Z,2.00
2023-04-22T01:14:27.742Z,1.88
2023-04-22T01:16:57.823Z,1.80
2023-04-22T01:19:29.436Z,1.75
2023-04-22T01:21:59.280Z,2.00
2023-04-22T01:24:30.682Z,1.92
2023-04-22T01:26:59.316Z,1.92
2023-04-22T01:29:27.955Z,2.25
2023-04-22T01:31:57.028Z,1.85
2023-04-22T01:34:25.716Z,1.92
2023-04-22T01:36:54.213Z,1.80
2023-04-22T01:39:22.809Z,1.90
2023-04-22T01:41:53.622Z,1.90
2023-04-22T01:44:22.351Z,1.95
2023-04-22T01:46:51.997Z,2.10
2023-04-22T01:49:20.478Z,1.90
2023-04-22T01:51:48.974Z,2.22
2023-04-22T01:54:17.624Z,2.13
2023-04-22T01:56:54.087Z,2.22
2023-04-22T01:59:23.043Z,2.10
2023-04-22T02:01:52.085Z,2.33
2023-04-22T02:04:20.681Z,2.25
2023-04-22T02:06:49.204Z,2.40
2023-04-22T02:09:17.726Z,2.25
2023-04-22T02:11:46.415Z,2.30
2023-04-22T02:14:16.224Z,2.20
2023-04-22T02:16:44.777Z,2.35
2023-04-22T02:19:13.262Z,2.20
2023-04-22T02:21:42.013Z,2.10
2023-04-22T02:24:11.611Z,2.10
2023-04-22T02:26:40.146Z,2.00
2023-04-22T02:29:08.906Z,2.20
2023-04-22T02:31:39.040Z,2.10
2023-04-22T02:34:07.657Z,2.00
2023-04-22T02:36:36.356Z,1.80
2023-04-22T02:39:06.116Z,2.03
2023-04-22T02:41:36.810Z,2.30
2023-04-22T02:44:05.918Z,1.90
2023-04-22T02:46:34.821Z,2.10
2023-04-22T02:49:05.525Z,1.90
2023-04-22T02:51:34.373Z,1.65
2023-04-22T02:54:02.938Z,1.90
2023-04-22T02:56:32.065Z,1.50
2023-04-22T02:59:00.608Z,2.20
2023-04-22T03:01:29.716Z,1.85
2023-04-22T03:04:01.872Z,1.90
2023-04-22T03:06:31.982Z,2.05
2023-04-22T03:09:00.924Z,1.75
2023-04-22T03:11:29.357Z,2.20
2023-04-22T03:13:58.044Z,2.08
2023-04-22T03:16:27.182Z,1.90
2023-04-22T03:18:57.811Z,1.88
2023-04-22T03:21:26.589Z,1.80
2023-04-22T03:23:57.205Z,1.70
2023-04-22T03:26:25.974Z,1.70
2023-04-22T03:28:55.385Z,1.70
2023-04-22T03:31:25.094Z,1.77
2023-04-22T03:33:54.058Z,1.63
2023-04-22T03:36:29.106Z,1.65
2023-04-22T03:38:59.855Z,1.88
2023-04-22T03:41:29.616Z,1.80
2023-04-22T03:44:01.533Z,1.75
2023-04-22T03:46:30.993Z,1.90
2023-04-22T03:49:09.091Z,1.73
2023-04-22T03:51:37.657Z,1.70
2023-04-22T03:54:12.674Z,1.80
2023-04-22T03:56:48.082Z,1.88
2023-04-22T03:59:18.570Z,2.00
2023-04-22T04:01:47.587Z,2.03
2023-04-22T04:04:19.877Z,1.77
2023-04-22T04:06:54.151Z,1.88
2023-04-22T04:09:24.168Z,1.80
2023-04-22T04:11:53.470Z,1.70
2023-04-22T04:14:22.005Z,1.73
2023-04-22T04:16:53.663Z,1.80
2023-04-22T04:19:31.762Z,1.70
2023-04-22T04:22:01.859Z,1.67
2023-04-22T04:24:36.709Z,1.83
2023-04-22T04:27:12.633Z,1.70
2023-04-22T04:29:49.614Z,1.67
2023-04-22T04:32:27.037Z,1.60
2023-04-22T04:34:57.659Z,1.80
2023-04-22T04:37:27.471Z,1.70
2023-04-22T04:40:06.752Z,1.90
2023-04-22T04:43:02.632Z,1.67
2023-04-22T04:45:37.754Z,1.70
2023-04-22T04:48:08.986Z,1.73
2023-04-22T04:53:11.183Z,1.77
2023-04-22T04:55:43.927Z,1.70
2023-04-22T04:58:20.023Z,1.60
2023-04-22T05:00:52.915Z,1.70
2023-04-22T05:03:21.885Z,1.80
2023-04-22T05:05:50.725Z,1.58
2023-04-22T05:08:19.234Z,1.77
2023-04-22T05:10:51.035Z,1.52
2023-04-22T05:13:20.158Z,1.67
2023-04-22T05:15:49.911Z,1.60
2023-04-22T05:18:19.185Z,1.80
2023-04-22T05:20:47.933Z,1.90
2023-04-22T05:23:17.770Z,1.60
2023-04-22T05:25:52.796Z,1.65
2023-04-22T05:28:23.575Z,1.80
2023-04-22T05:30:56.125Z,1.67
2023-04-22T05:33:24.752Z,1.70
2023-04-22T05:35:53.795Z,1.70
2023-04-22T05:38:22.545Z,1.52
2023-04-22T05:40:51.431Z,1.83
2023-04-22T05:43:20.971Z,1.88
2023-04-22T05:45:58.751Z,1.75
2023-04-22T05:48:28.125Z,1.70
2023-04-22T05:51:02.833Z,1.92
2023-04-22T05:53:32.565Z,2.10
2023-04-22T05:56:03.030Z,1.80
2023-04-22T05:58:31.535Z,1.80
2023-04-22T06:01:05.889Z,1.80
2023-04-22T06:04:05.264Z,1.83
2023-04-22T06:06:34.368Z,1.50
2023-04-22T06:09:03.078Z,1.80
2023-04-22T06:11:32.179Z,1.88
2023-04-22T06:14:01.294Z,1.88
2023-04-22T06:16:31.526Z,1.70
2023-04-22T06:19:00.120Z,1.67
2023-04-22T06:21:28.780Z,1.60
2023-04-22T06:23:59.876Z,1.67
2023-04-22T06:26:28.561Z,1.67
2023-04-22T06:28:57.763Z,1.60
2023-04-22T06:31:26.339Z,1.60
2023-04-22T06:33:56.383Z,1.70
2023-04-22T06:36:25.431Z,1.70
2023-04-22T06:38:59.076Z,1.65
2023-04-22T06:41:50.271Z,1.80
2023-04-22T06:44:39.872Z,1.58
2023-04-22T06:47:30.358Z,1.80
2023-04-22T06:50:12.946Z,1.67
2023-04-22T06:52:57.303Z,1.58
2023-04-22T06:55:29.220Z,1.88
2023-04-22T06:57:58.023Z,1.58
2023-04-22T07:00:28.200Z,1.83
2023-04-22T07:02:56.983Z,2.00
2023-04-22T07:05:27.313Z,1.88
2023-04-22T07:07:56.897Z,1.73
2023-04-22T07:10:26.550Z,1.92
2023-04-22T07:13:18.003Z,2.10
2023-04-22T07:15:46.792Z,1.80
2023-04-22T07:18:15.360Z,2.13
2023-04-22T07:20:45.421Z,1.63
2023-04-22T07:23:14.005Z,1.98
2023-04-22T07:25:42.594Z,1.98
2023-04-22T07:28:11.311Z,1.80
2023-04-22T07:30:39.855Z,1.75
2023-04-22T07:33:08.502Z,1.88
2023-04-22T07:35:38.880Z,2.00
2023-04-22T07:38:09.867Z,1.80
2023-04-22T07:40:39.168Z,1.80
2023-04-22T07:43:07.837Z,1.85
2023-04-22T07:45:36.457Z,1.92
2023-04-22T07:48:05.533Z,1.95
2023-04-22T07:50:34.129Z,1.70
2023-04-22T07:53:02.976Z,1.83
2023-04-22T07:55:33.257Z,2.00
2023-04-22T07:58:06.375Z,1.85
2023-04-22T08:00:35.623Z,2.20
2023-04-22T08:03:04.979Z,2.00
2023-04-22T08:05:33.804Z,1.98
2023-04-22T08:08:02.742Z,2.03
2023-04-22T08:10:32.819Z,2.20
2023-04-22T08:13:03.172Z,1.88
2023-04-22T08:15:31.706Z,1.95
2023-04-22T08:18:00.361Z,1.95
2023-04-22T08:20:28.925Z,1.80
2023-04-22T08:22:58.230Z,1.85
2023-04-22T08:25:26.767Z,2.00
2023-04-22T08:27:57.948Z,2.00
2023-04-22T08:30:26.758Z,2.13
2023-04-22T08:32:55.482Z,2.17
2023-04-22T08:35:24.168Z,1.90
2023-04-22T08:37:52.721Z,2.00
2023-04-22T08:40:21.573Z,1.90
2023-04-22T08:42:52.193Z,2.00
2023-04-22T08:45:22.558Z,1.92
2023-04-22T08:47:51.276Z,1.70
2023-04-22T08:50:22.145Z,1.65
2023-04-22T08:52:51.066Z,1.90
2023-04-22T08:55:20.525Z,1.73
2023-04-22T08:57:50.334Z,1.70
2023-04-22T09:00:20.103Z,1.73
2023-04-22T09:02:51.795Z,1.85
2023-04-22T09:05:23.434Z,1.90
2023-04-22T09:07:52.360Z,1.80
2023-04-22T09:10:21.284Z,1.85
2023-04-22T09:12:50.547Z,1.70
2023-04-22T09:15:19.289Z,2.00
2023-04-22T09:17:52.035Z,1.70
2023-04-22T09:20:20.747Z,1.73
2023-04-22T09:22:50.760Z,1.90
2023-04-22T09:25:20.591Z,1.73
2023-04-22T09:27:53.052Z,1.52
2023-04-22T09:30:25.585Z,1.70
2023-04-22T09:32:57.347Z,1.70
2023-04-22T09:35:30.164Z,1.80
2023-04-22T09:38:00.535Z,1.75
2023-04-22T09:40:29.990Z,1.85
2023-04-22T09:43:01.823Z,1.90
2023-04-22T09:45:31.914Z,1.90
2023-04-22T09:48:07.906Z,1.90
2023-04-22T09:50:37.836Z,1.70
2023-04-22T09:53:08.186Z,1.70
2023-04-22T09:55:38.997Z,1.80
2023-04-22T09:58:09.740Z,1.80
2023-04-22T10:00:42.604Z,1.83
2023-04-22T10:03:12.959Z,1.70
2023-04-22T10:05:42.186Z,1.85
2023-04-22T10:08:12.099Z,1.92
2023-04-22T10:10:41.281Z,1.63
2023-04-22T10:13:10.712Z,1.85
2023-04-22T10:15:41.607Z,1.80
2023-04-22T10:18:15.319Z,1.80
2023-04-22T10:20:45.286Z,1.73
2023-04-22T10:23:16.223Z,2.00
2023-04-22T10:25:48.838Z,1.67
2023-04-22T10:28:18.705Z,1.80
2023-04-22T10:30:47.902Z,1.98
2023-04-22T10:33:40.025Z,2.03
2023-04-22T10:36:10.634Z,1.80
2023-04-22T10:38:41.891Z,2.10
2023-04-22T10:41:17.035Z,1.95
2023-04-22T10:43:49.068Z,1.90
2023-04-22T10:46:54.725Z,2.25
2023-04-22T10:49:27.857Z,1.67
2023-04-22T10:51:59.867Z,1.80
2023-04-22T10:54:58.016Z,1.80
2023-04-22T10:57:38.520Z,1.95
2023-04-22T11:03:17.341Z,1.77
2023-04-22T11:05:48.761Z,1.70
2023-04-22T11:08:25.134Z,1.90
2023-04-22T11:10:55.585Z,1.73
2023-04-22T11:13:26.952Z,1.70
2023-04-22T11:16:01.209Z,1.80
2023-04-22T11:18:33.644Z,1.77
2023-04-22T11:21:08.908Z,2.00
2023-04-22T11:23:37.701Z,1.63
2023-04-22T11:26:12.473Z,1.80
2023-04-22T11:28:52.718Z,1.90
2023-04-22T11:31:27.872Z,1.88
2023-04-22T11:34:00.761Z,1.95
2023-04-22T11:36:32.897Z,1.90
2023-04-22T11:39:03.344Z,1.75
2023-04-22T11:41:34.612Z,1.80
2023-04-22T11:44:07.626Z,2.00
2023-04-22T11:46:40.580Z,2.17
2023-04-22T11:49:16.942Z,1.83
2023-04-22T11:52:00.962Z,1.80
2023-04-22T11:54:35.628Z,1.90
2023-04-22T11:57:09.302Z,2.10
2023-04-22T12:02:13.851Z,1.98
2023-04-22T12:04:46.357Z,2.00
2023-04-22T12:07:17.767Z,1.75
2023-04-22T12:09:51.301Z,2.00
2023-04-22T12:12:27.030Z,1.80
2023-04-22T12:14:58.092Z,1.83
2023-04-22T12:17:27.337Z,1.80
2023-04-22T12:19:56.684Z,1.80
2023-04-22T12:22:28.152Z,1.98
2023-04-22T12:24:59.726Z,1.83
2023-04-22T12:27:29.187Z,1.75
2023-04-22T12:29:58.852Z,1.90
2023-04-22T12:32:31.556Z,2.10
2023-04-22T12:35:00.187Z,1.80
2023-04-22T12:37:30.721Z,2.05
2023-04-22T12:39:59.796Z,2.10
2023-04-22T12:42:28.366Z,2.08
2023-04-22T12:44:56.981Z,1.90
2023-04-22T12:47:25.925Z,2.20
2023-04-22T12:49:54.542Z,2.13
2023-04-22T12:52:23.266Z,2.10
2023-04-22T12:54:53.457Z,2.20
2023-04-22T12:57:22.001Z,2.03
2023-04-22T12:59:50.534Z,2.50
2023-04-22T13:02:19.353Z,2.30
2023-04-22T13:04:47.946Z,1.98
2023-04-22T13:07:17.480Z,2.08
2023-04-22T13:09:46.108Z,2.35
2023-04-22T13:12:16.284Z,2.00
2023-04-22T13:14:44.803Z,2.00
2023-04-22T13:17:13.551Z,2.15
2023-04-22T13:19:42.211Z,1.90
2023-04-22T13:22:10.867Z,1.90
2023-04-22T13:24:39.350Z,2.00
2023-04-22T13:27:07.961Z,2.03
2023-04-22T13:29:38.344Z,2.05
2023-04-22T13:32:07.246Z,1.88
2023-04-22T13:34:35.858Z,1.85
2023-04-22T13:37:04.635Z,1.90
2023-04-22T13:39:33.566Z,1.75
2023-04-22T13:42:02.809Z,2.00
2023-04-22T13:44:31.477Z,1.92
2023-04-22T13:47:02.764Z,1.55
2023-04-22T13:49:31.585Z,3.03
2023-04-22T13:52:00.098Z,1.95
2023-04-22T13:54:28.592Z,1.63
2023-04-22T13:56:57.156Z,1.83
2023-04-22T13:59:25.963Z,1.80
2023-04-22T14:01:54.468Z,1.42
2023-04-22T14:04:24.539Z,1.60
2023-04-22T14:06:53.338Z,1.50
2023-04-22T14:09:22.166Z,1.60
2023-04-22T14:11:50.739Z,1.58
2023-04-22T14:14:19.321Z,1.48
2023-04-22T14:16:47.920Z,1.50
2023-04-22T14:19:19.292Z,1.70
2023-04-22T14:21:49.065Z,1.40
2023-04-22T14:24:19.385Z,1.63
2023-04-22T14:26:47.962Z,1.60
2023-04-22T14:29:16.643Z,1.70
2023-04-22T14:31:45.256Z,1.50
2023-04-22T14:34:13.873Z,1.45
2023-04-22T14:36:42.417Z,1.50
2023-04-22T14:39:12.508Z,1.50
2023-04-22T14:41:41.463Z,1.40
2023-04-22T14:44:10.088Z,1.58
2023-04-22T14:46:38.643Z,1.50
2023-04-22T14:49:07.332Z,1.50
2023-04-22T14:51:36.512Z,1.65
2023-04-22T14:54:05.280Z,1.80
2023-04-22T14:56:36.115Z,1.60
2023-04-22T14:59:04.600Z,1.80
2023-04-22T15:01:33.643Z,1.70
2023-04-22T15:04:02.231Z,1.98
2023-04-22T15:06:31.080Z,1.63
2023-04-22T15:08:59.558Z,1.80
2023-04-22T15:11:28.057Z,1.60
2023-04-22T15:13:57.972Z,1.50
2023-04-22T15:16:26.619Z,1.60
2023-04-22T15:18:55.752Z,1.58
2023-04-22T15:21:24.328Z,1.63
2023-04-22T15:23:53.102Z,1.67
2023-04-22T15:26:21.649Z,1.60
2023-04-22T15:28:51.290Z,1.60
2023-04-22T15:31:21.924Z,1.58
2023-04-22T15:33:50.571Z,1.70
2023-04-22T15:36:21.578Z,1.80
2023-04-22T15:38:56.343Z,1.63
2023-04-22T15:41:25.392Z,1.70
2023-04-22T15:43:54.330Z,1.80
2023-04-22T15:46:24.303Z,1.60
2023-04-22T15:48:52.897Z,1.70
2023-04-22T15:51:21.868Z,1.65
2023-04-22T15:53:50.519Z,1.48
2023-04-22T15:56:19.433Z,1.40
2023-04-22T15:58:47.939Z,1.30
2023-04-22T16:01:19.560Z,1.38
2023-04-22T16:03:51.474Z,1.40
2023-04-22T16:06:20.416Z,1.38
2023-04-22T16:08:48.942Z,1.38
2023-04-22T16:11:17.623Z,1.30
2023-04-22T16:13:46.436Z,1.30
2023-04-22T16:16:15.117Z,1.33
2023-04-22T16:18:44.461Z,1.40
2023-04-22T16:21:14.435Z,1.50
2023-04-22T16:23:43.407Z,1.25
2023-04-22T16:26:12.012Z,1.60
2023-04-22T16:28:40.735Z,1.25
2023-04-22T16:31:12.342Z,1.30
2023-04-22T16:33:40.917Z,1.33
2023-04-22T16:36:10.290Z,1.40
2023-04-22T16:38:40.171Z,1.30
2023-04-22T16:41:11.508Z,1.27
2023-04-22T16:43:41.383Z,1.55
2023-04-22T16:46:09.906Z,1.50
2023-04-22T16:48:38.514Z,1.67
2023-04-22T16:51:07.185Z,1.60
2023-04-22T16:53:36.621Z,1.50
2023-04-22T16:56:06.902Z,1.50
2023-04-22T16:58:35.450Z,1.50
2023-04-22T17:01:04.181Z,1.60
2023-04-22T17:03:33.313Z,1.90
2023-04-22T17:06:01.988Z,1.50
2023-04-22T17:08:30.667Z,1.50
2023-04-22T17:10:59.502Z,1.50
2023-04-22T17:13:29.410Z,1.50
2023-04-22T17:15:58.004Z,1.50
2023-04-22T17:18:26.764Z,1.65
2023-04-22T17:20:55.924Z,1.50
2023-04-22T17:23:24.377Z,1.40
2023-04-22T17:25:52.857Z,1.55
2023-04-22T17:28:21.476Z,1.70
2023-04-22T17:30:51.424Z,1.75
2023-04-22T17:33:19.967Z,1.80
2023-04-22T17:35:48.508Z,1.50
2023-04-22T17:38:17.056Z,1.70
2023-04-22T17:40:45.861Z,1.52
2023-04-22T17:43:14.466Z,1.70
2023-04-22T17:45:42.957Z,1.73
2023-04-22T17:48:12.963Z,1.40
2023-04-22T17:50:41.473Z,1.58
2023-04-22T17:53:09.956Z,1.50
2023-04-22T17:55:38.927Z,1.58
2023-04-22T17:58:07.494Z,1.70
2023-04-22T18:00:36.951Z,1.63
2023-04-22T18:03:06.594Z,1.40
2023-04-22T18:05:42.971Z,1.50
2023-04-22T18:08:11.826Z,1.38
2023-04-22T18:10:40.390Z,1.60
2023-04-22T18:13:08.881Z,1.42
2023-04-22T18:15:37.376Z,1.70
2023-04-22T18:18:05.981Z,1.50
2023-04-22T18:20:36.265Z,1.65
2023-04-22T18:23:05.656Z,1.75
2023-04-22T18:25:35.218Z,1.45
2023-04-22T18:28:03.833Z,1.70
2023-04-22T18:30:32.920Z,1.65
2023-04-22T18:33:01.626Z,2.20
2023-04-22T18:35:30.658Z,2.00
2023-04-22T18:38:00.818Z,2.03
2023-04-22T18:40:29.760Z,1.63
2023-04-22T18:42:58.814Z,1.75
2023-04-22T18:45:27.591Z,1.73
2023-04-22T18:47:56.803Z,1.77
2023-04-22T18:50:25.662Z,1.50
2023-04-22T18:52:54.556Z,1.75
2023-04-22T18:55:24.990Z,1.73
2023-04-22T18:57:53.767Z,1.73
2023-04-22T19:00:22.694Z,1.77
2023-04-22T19:02:51.575Z,1.88
2023-04-22T19:05:20.553Z,1.88
2023-04-22T19:07:49.637Z,1.63
2023-04-22T19:10:18.408Z,1.80
2023-04-22T19:12:48.377Z,1.70
2023-04-22T19:15:20.072Z,2.08
2023-04-22T19:17:49.073Z,2.00
2023-04-22T19:20:18.119Z,2.03
2023-04-22T19:22:46.814Z,1.90
2023-04-22T19:25:16.341Z,2.08
2023-04-22T19:27:44.780Z,2.10
2023-04-22T19:30:16.542Z,2.80
2023-04-22T19:32:45.417Z,3.17
2023-04-22T19:35:16.363Z,3.55
2023-04-22T19:37:45.629Z,3.05
2023-04-22T19:40:17.331Z,2.78
2023-04-22T19:42:47.403Z,3.13
2023-04-22T19:45:17.634Z,3.35
2023-04-22T19:47:46.775Z,3.83
2023-04-22T19:50:16.747Z,3.45
2023-04-22T19:52:47.614Z,3.50
2023-04-22T19:55:17.536Z,3.17
2023-04-22T19:57:46.860Z,3.17
2023-04-22T20:00:18.952Z,3.45
2023-04-22T20:02:48.344Z,3.33
2023-04-22T20:05:18.898Z,3.47
2023-04-22T20:07:48.518Z,3.97
2023-04-22T20:10:18.259Z,4.43
2023-04-22T20:12:47.177Z,4.60
2023-04-22T20:15:18.053Z,4.22
2023-04-22T20:17:47.102Z,4.35
2023-04-22T20:20:17.699Z,4.38
2023-04-22T20:22:47.423Z,4.80
2023-04-22T20:25:18.257Z,4.32
2023-04-22T20:27:47.380Z,4.97
2023-04-22T20:30:18.940Z,5.25
2023-04-22T20:32:48.035Z,4.38
2023-04-22T20:35:17.362Z,4.25
2023-04-22T20:37:47.129Z,4.18
2023-04-22T20:40:16.812Z,4.53
2023-04-22T20:42:46.735Z,4.80
2023-04-22T20:45:17.888Z,5.25
2023-04-22T20:47:48.616Z,5.00
2023-04-22T20:50:17.393Z,5.82
2023-04-22T20:52:45.887Z,5.70
2023-04-22T20:55:14.571Z,5.38
2023-04-22T20:57:43.179Z,7.13
2023-04-22T21:00:12.639Z,5.80
2023-04-22T21:02:43.247Z,6.10
2023-04-22T21:05:13.770Z,5.40
2023-04-22T21:07:44.525Z,7.03
2023-04-22T21:10:14.023Z,5.90
2023-04-22T21:12:43.408Z,6.43
2023-04-22T21:15:18.745Z,6.75
2023-04-22T21:18:03.330Z,6.57
2023-04-22T21:23:11.063Z,6.32
2023-04-22T21:25:41.598Z,6.00
2023-04-22T21:28:12.611Z,4.88
2023-04-22T21:30:42.546Z,6.68
2023-04-22T21:33:12.000Z,7.43
2023-04-22T21:35:45.419Z,7.00
2023-04-22T21:38:16.719Z,7.38
2023-04-22T21:40:49.049Z,6.30
2023-04-22T21:43:29.604Z,7.10
2023-04-22T21:45:58.535Z,7.18
2023-04-22T21:48:27.696Z,7.00
2023-04-22T21:50:58.663Z,6.45
2023-04-22T21:53:28.452Z,6.88
2023-04-22T21:55:58.099Z,5.80
2023-04-22T21:58:29.496Z,5.55
2023-04-22T22:00:58.629Z,6.00
2023-04-22T22:03:28.136Z,5.75
2023-04-22T22:05:59.922Z,6.03
2023-04-22T22:08:28.908Z,5.40
2023-04-22T22:10:57.913Z,6.30
2023-04-22T22:13:27.022Z,8.13
2023-04-22T22:15:57.713Z,6.90
2023-04-22T22:18:27.512Z,5.85
2023-04-22T22:20:56.084Z,5.63
2023-04-22T22:23:26.164Z,5.63
2023-04-22T22:25:54.721Z,5.45
2023-04-22T22:28:23.286Z,5.65
2023-04-22T22:30:51.816Z,5.22
2023-04-22T22:33:20.360Z,5.20
2023-04-22T22:35:48.998Z,4.95
2023-04-22T22:38:17.530Z,5.00
2023-04-22T22:40:47.444Z,5.80
2023-04-22T22:43:16.406Z,5.38
2023-04-22T22:45:45.633Z,5.38
2023-04-22T22:48:15.939Z,5.35
2023-04-22T22:50:46.765Z,6.43
2023-04-22T22:53:16.171Z,6.28
2023-04-22T22:55:45.510Z,5.82
2023-04-22T22:58:16.772Z,6.32
2023-04-22T23:00:45.675Z,6.75
2023-04-22T23:03:14.292Z,6.03
2023-04-22T23:05:42.975Z,5.72
2023-04-22T23:08:12.417Z,5.45
2023-04-22T23:10:40.884Z,5.75
2023-04-22T23:13:09.346Z,7.40
2023-04-22T23:15:39.335Z,6.20
2023-04-22T23:18:08.979Z,6.50
2023-04-22T23:20:38.304Z,6.93
2023-04-22T23:23:07.327Z,7.45
2023-04-22T23:25:36.347Z,6.60
2023-04-22T23:28:05.595Z,5.95
2023-04-22T23:30:34.898Z,6.35
2023-04-22T23:33:05.940Z,8.75
2023-04-22T23:35:36.748Z,7.28
2023-04-22T23:38:05.555Z,6.35
2023-04-22T23:40:34.057Z,6.40
2023-04-22T23:43:02.621Z,6.25
2023-04-22T23:45:31.132Z,6.50
2023-04-22T23:47:59.909Z,5.93
2023-04-22T23:50:30.656Z,5.60
2023-04-22T23:52:59.469Z,5.68
2023-04-22T23:55:28.836Z,5.93
2023-04-22T23:57:57.940Z,5.28
